sensor_id;sensor_type;location;lat;lon;timestamp;temperature;humidity
22682;DHT22;11508;50.856;4.380;2023-04-26T00:02:23;6.20;99.90
22682;DHT22;11508;50.856;4.380;2023-04-26T00:04:52;6.40;99.90
22682;DHT22;11508;50.856;4.380;2023-04-26T00:09:49;6.70;99.90
22682;DHT22;11508;50.856;4.380;2023-04-26T00:12:16;6.80;1.00
22682;DHT22;11508;50.856;4.380;2023-04-26T00:14:42;6.90;1.00
22682;DHT22;11508;50.856;4.380;2023-04-26T00:17:07;7.00;1.00
22682;DHT22;11508;50.856;4.380;2023-04-26T00:19:33;6.80;1.00
22682;DHT22;11508;50.856;4.380;2023-04-26T00:21:59;6.60;1.00
22682;DHT22;11508;50.856;4.380;2023-04-26T00:24:25;6.70;99.90
22682;DHT22;11508;50.856;4.380;2023-04-26T00:26:55;6.90;99.90
22682;DHT22;11508;50.856;4.380;2023-04-26T00:29:21;6.90;99.90
22682;DHT22;11508;50.856;4.380;2023-04-26T00:31:47;6.50;1.00
22682;DHT22;11508;50.856;4.380;2023-04-26T00:34:13;6.40;99.90
22682;DHT22;11508;50.856;4.380;2023-04-26T00:36:38;6.30;99.90
22682;DHT22;11508;50.856;4.380;2023-04-26T00:41:30;6.30;99.90
22682;DHT22;11508;50.856;4.380;2023-04-26T00:43:56;6.50;99.90
22682;DHT22;11508;50.856;4.380;2023-04-26T00:46:22;6.60;1.00
22682;DHT22;11508;50.856;4.380;2023-04-26T00:48:47;6.50;1.00
22682;DHT22;11508;50.856;4.380;2023-04-26T00:51:14;6.50;1.00
22682;DHT22;11508;50.856;4.380;2023-04-26T00:53:40;6.60;1.00
22682;DHT22;11508;50.856;4.380;2023-04-26T00:56:08;6.60;1.00
22682;DHT22;11508;50.856;4.380;2023-04-26T00:58:36;6.60;1.00
22682;DHT22;11508;50.856;4.380;2023-04-26T01:01:02;6.70;1.00
22682;DHT22;11508;50.856;4.380;2023-04-26T01:03:28;6.80;1.00
22682;DHT22;11508;50.856;4.380;2023-04-26T01:08:21;6.80;1.00
22682;DHT22;11508;50.856;4.380;2023-04-26T01:10:48;6.80;1.00
22682;DHT22;11508;50.856;4.380;2023-04-26T01:13:14;6.90;1.00
22682;DHT22;11508;50.856;4.380;2023-04-26T01:15:47;7.00;1.00
22682;DHT22;11508;50.856;4.380;2023-04-26T01:18:13;7.10;1.00
22682;DHT22;11508;50.856;4.380;2023-04-26T01:20:40;7.30;1.00
22682;DHT22;11508;50.856;4.380;2023-04-26T01:23:06;7.00;1.00
22682;DHT22;11508;50.856;4.380;2023-04-26T01:25:33;6.90;1.00
22682;DHT22;11508;50.856;4.380;2023-04-26T01:28:01;6.60;1.00
22682;DHT22;11508;50.856;4.380;2023-04-26T01:30:26;6.40;99.90
22682;DHT22;11508;50.856;4.380;2023-04-26T01:32:52;6.50;1.00
22682;DHT22;11508;50.856;4.380;2023-04-26T01:35:17;6.60;1.00
22682;DHT22;11508;50.856;4.380;2023-04-26T01:37:43;6.60;1.00
22682;DHT22;11508;50.856;4.380;2023-04-26T01:40:09;6.70;1.00
22682;DHT22;11508;50.856;4.380;2023-04-26T01:42:35;6.80;1.00
22682;DHT22;11508;50.856;4.380;2023-04-26T01:45:01;6.80;1.00
22682;DHT22;11508;50.856;4.380;2023-04-26T01:47:27;6.80;1.00
22682;DHT22;11508;50.856;4.380;2023-04-26T01:49:52;6.70;1.00
22682;DHT22;11508;50.856;4.380;2023-04-26T01:52:18;6.40;1.00
22682;DHT22;11508;50.856;4.380;2023-04-26T01:54:44;6.40;99.90
22682;DHT22;11508;50.856;4.380;2023-04-26T01:57:10;6.50;1.00
22682;DHT22;11508;50.856;4.380;2023-04-26T01:59:35;6.60;1.00
22682;DHT22;11508;50.856;4.380;2023-04-26T02:02:01;6.70;1.00
22682;DHT22;11508;50.856;4.380;2023-04-26T02:04:27;6.70;1.00
22682;DHT22;11508;50.856;4.380;2023-04-26T02:06:52;6.70;1.00
22682;DHT22;11508;50.856;4.380;2023-04-26T02:09:18;6.80;1.00
22682;DHT22;11508;50.856;4.380;2023-04-26T02:11:44;6.80;1.00
22682;DHT22;11508;50.856;4.380;2023-04-26T02:14:10;6.80;1.00
22682;DHT22;11508;50.856;4.380;2023-04-26T02:16:38;6.90;1.00
22682;DHT22;11508;50.856;4.380;2023-04-26T02:19:04;6.80;1.00
22682;DHT22;11508;50.856;4.380;2023-04-26T02:21:49;6.90;1.00
22682;DHT22;11508;50.856;4.380;2023-04-26T02:24:16;6.70;1.00
22682;DHT22;11508;50.856;4.380;2023-04-26T02:26:41;6.70;1.00
22682;DHT22;11508;50.856;4.380;2023-04-26T02:29:07;6.70;1.00
22682;DHT22;11508;50.856;4.380;2023-04-26T02:33:59;6.70;99.90
22682;DHT22;11508;50.856;4.380;2023-04-26T02:36:26;6.70;99.90
22682;DHT22;11508;50.856;4.380;2023-04-26T02:38:52;6.70;99.90
22682;DHT22;11508;50.856;4.380;2023-04-26T02:43:43;6.70;99.90
22682;DHT22;11508;50.856;4.380;2023-04-26T02:46:09;6.70;99.90
22682;DHT22;11508;50.856;4.380;2023-04-26T02:48:35;6.80;99.90
22682;DHT22;11508;50.856;4.380;2023-04-26T02:51:01;6.80;99.90
22682;DHT22;11508;50.856;4.380;2023-04-26T02:53:26;6.80;99.90
22682;DHT22;11508;50.856;4.380;2023-04-26T02:55:52;6.80;99.90
22682;DHT22;11508;50.856;4.380;2023-04-26T02:58:18;6.80;99.90
22682;DHT22;11508;50.856;4.380;2023-04-26T03:00:46;6.60;1.00
22682;DHT22;11508;50.856;4.380;2023-04-26T03:03:13;6.60;99.90
22682;DHT22;11508;50.856;4.380;2023-04-26T03:05:38;6.50;99.90
22682;DHT22;11508;50.856;4.380;2023-04-26T03:08:04;6.60;99.90
22682;DHT22;11508;50.856;4.380;2023-04-26T03:10:30;6.60;99.90
22682;DHT22;11508;50.856;4.380;2023-04-26T03:12:56;6.60;99.90
22682;DHT22;11508;50.856;4.380;2023-04-26T03:15:22;6.60;99.90
22682;DHT22;11508;50.856;4.380;2023-04-26T03:17:47;6.60;99.90
22682;DHT22;11508;50.856;4.380;2023-04-26T03:20:13;6.30;99.90
22682;DHT22;11508;50.856;4.380;2023-04-26T03:22:41;6.30;99.90
22682;DHT22;11508;50.856;4.380;2023-04-26T03:25:07;6.00;1.00
22682;DHT22;11508;50.856;4.380;2023-04-26T03:27:33;6.00;1.00
22682;DHT22;11508;50.856;4.380;2023-04-26T03:29:59;6.00;1.00
22682;DHT22;11508;50.856;4.380;2023-04-26T03:32:24;6.10;1.00
22682;DHT22;11508;50.856;4.380;2023-04-26T03:34:50;6.00;1.00
22682;DHT22;11508;50.856;4.380;2023-04-26T03:37:16;6.10;1.00
22682;DHT22;11508;50.856;4.380;2023-04-26T03:39:41;6.00;1.00
22682;DHT22;11508;50.856;4.380;2023-04-26T03:42:07;6.20;1.00
22682;DHT22;11508;50.856;4.380;2023-04-26T03:44:33;6.30;99.90
22682;DHT22;11508;50.856;4.380;2023-04-26T03:49:24;6.30;99.90
22682;DHT22;11508;50.856;4.380;2023-04-26T03:51:50;6.40;99.90
22682;DHT22;11508;50.856;4.380;2023-04-26T03:54:16;6.40;99.90
22682;DHT22;11508;50.856;4.380;2023-04-26T03:56:41;6.40;99.90
22682;DHT22;11508;50.856;4.380;2023-04-26T03:59:07;6.40;99.90
22682;DHT22;11508;50.856;4.380;2023-04-26T04:04:01;6.40;99.90
22682;DHT22;11508;50.856;4.380;2023-04-26T04:06:27;6.50;99.90
22682;DHT22;11508;50.856;4.380;2023-04-26T04:08:52;6.40;99.90
22682;DHT22;11508;50.856;4.380;2023-04-26T04:11:18;6.30;99.90
22682;DHT22;11508;50.856;4.380;2023-04-26T04:13:44;6.10;99.90
22682;DHT22;11508;50.856;4.380;2023-04-26T04:16:10;6.10;99.90
22682;DHT22;11508;50.856;4.380;2023-04-26T04:18:36;6.00;1.00
22682;DHT22;11508;50.856;4.380;2023-04-26T04:21:02;6.10;1.00
22682;DHT22;11508;50.856;4.380;2023-04-26T04:23:27;6.30;99.90
22682;DHT22;11508;50.856;4.380;2023-04-26T04:25:53;6.40;99.90
22682;DHT22;11508;50.856;4.380;2023-04-26T04:28:19;6.60;99.90
22682;DHT22;11508;50.856;4.380;2023-04-26T04:30:48;6.70;99.90
22682;DHT22;11508;50.856;4.380;2023-04-26T04:33:14;6.70;99.90
22682;DHT22;11508;50.856;4.380;2023-04-26T04:35:42;6.70;99.90
22682;DHT22;11508;50.856;4.380;2023-04-26T04:38:09;6.80;99.90
22682;DHT22;11508;50.856;4.380;2023-04-26T04:40:35;6.80;99.90
22682;DHT22;11508;50.856;4.380;2023-04-26T04:43:01;7.00;99.90
22682;DHT22;11508;50.856;4.380;2023-04-26T04:45:27;7.00;99.90
22682;DHT22;11508;50.856;4.380;2023-04-26T04:47:53;7.10;99.90
22682;DHT22;11508;50.856;4.380;2023-04-26T04:50:19;7.00;99.90
22682;DHT22;11508;50.856;4.380;2023-04-26T04:52:46;7.00;99.90
22682;DHT22;11508;50.856;4.380;2023-04-26T04:55:11;6.90;99.90
22682;DHT22;11508;50.856;4.380;2023-04-26T04:57:37;6.90;99.90
22682;DHT22;11508;50.856;4.380;2023-04-26T05:00:03;6.40;1.00
22682;DHT22;11508;50.856;4.380;2023-04-26T05:02:37;6.40;1.00
22682;DHT22;11508;50.856;4.380;2023-04-26T05:05:03;6.70;1.00
22682;DHT22;11508;50.856;4.380;2023-04-26T05:07:33;6.90;99.90
22682;DHT22;11508;50.856;4.380;2023-04-26T05:09:59;7.10;99.90
22682;DHT22;11508;50.856;4.380;2023-04-26T05:12:25;7.40;99.90
22682;DHT22;11508;50.856;4.380;2023-04-26T05:14:51;7.60;99.90
22682;DHT22;11508;50.856;4.380;2023-04-26T05:17:17;7.00;99.90
22682;DHT22;11508;50.856;4.380;2023-04-26T05:19:42;6.90;99.90
22682;DHT22;11508;50.856;4.380;2023-04-26T05:22:08;6.80;99.90
22682;DHT22;11508;50.856;4.380;2023-04-26T05:24:33;7.00;99.90
22682;DHT22;11508;50.856;4.380;2023-04-26T05:26:59;7.10;99.90
22682;DHT22;11508;50.856;4.380;2023-04-26T05:29:29;7.10;99.90
22682;DHT22;11508;50.856;4.380;2023-04-26T05:31:58;7.40;99.90
22682;DHT22;11508;50.856;4.380;2023-04-26T05:34:23;7.40;99.90
22682;DHT22;11508;50.856;4.380;2023-04-26T05:36:49;7.10;99.90
22682;DHT22;11508;50.856;4.380;2023-04-26T05:39:16;7.00;99.90
22682;DHT22;11508;50.856;4.380;2023-04-26T05:41:43;7.30;99.90
22682;DHT22;11508;50.856;4.380;2023-04-26T05:44:09;7.50;99.90
22682;DHT22;11508;50.856;4.380;2023-04-26T05:49:02;8.20;99.90
22682;DHT22;11508;50.856;4.380;2023-04-26T05:51:27;8.40;75.70
22682;DHT22;11508;50.856;4.380;2023-04-26T05:53:53;8.70;99.90
22682;DHT22;11508;50.856;4.380;2023-04-26T05:56:18;8.80;71.40
22682;DHT22;11508;50.856;4.380;2023-04-26T05:58:45;8.90;99.90
22682;DHT22;11508;50.856;4.380;2023-04-26T06:01:12;8.90;1.00
22682;DHT22;11508;50.856;4.380;2023-04-26T06:03:39;9.10;69.20
22682;DHT22;11508;50.856;4.380;2023-04-26T06:06:05;9.30;12.30
22682;DHT22;11508;50.856;4.380;2023-04-26T06:08:32;9.40;1.00
22682;DHT22;11508;50.856;4.380;2023-04-26T06:10:58;9.30;1.00
22682;DHT22;11508;50.856;4.380;2023-04-26T06:13:24;9.30;16.80
22682;DHT22;11508;50.856;4.380;2023-04-26T06:15:51;9.50;1.00
22682;DHT22;11508;50.856;4.380;2023-04-26T06:18:18;9.60;1.00
22682;DHT22;11508;50.856;4.380;2023-04-26T06:20:45;10.20;7.50
22682;DHT22;11508;50.856;4.380;2023-04-26T06:23:11;10.20;26.60
22682;DHT22;11508;50.856;4.380;2023-04-26T06:25:37;10.50;99.90
22682;DHT22;11508;50.856;4.380;2023-04-26T06:28:10;10.60;1.00
22682;DHT22;11508;50.856;4.380;2023-04-26T06:30:35;10.70;99.90
22682;DHT22;11508;50.856;4.380;2023-04-26T06:33:01;10.60;1.00
22682;DHT22;11508;50.856;4.380;2023-04-26T06:35:27;10.50;99.90
22682;DHT22;11508;50.856;4.380;2023-04-26T06:37:54;10.50;99.90
22682;DHT22;11508;50.856;4.380;2023-04-26T06:40:20;10.40;99.90
22682;DHT22;11508;50.856;4.380;2023-04-26T06:42:46;10.60;99.90
22682;DHT22;11508;50.856;4.380;2023-04-26T06:45:12;10.50;99.90
22682;DHT22;11508;50.856;4.380;2023-04-26T06:47:38;10.30;99.90
22682;DHT22;11508;50.856;4.380;2023-04-26T06:50:04;10.00;99.90
22682;DHT22;11508;50.856;4.380;2023-04-26T06:52:32;9.70;99.90
22682;DHT22;11508;50.856;4.380;2023-04-26T06:55:00;12.50;99.90
22682;DHT22;11508;50.856;4.380;2023-04-26T06:57:27;10.00;1.00
22682;DHT22;11508;50.856;4.380;2023-04-26T06:59:53;10.10;1.00
22682;DHT22;11508;50.856;4.380;2023-04-26T07:02:19;10.30;1.00
22682;DHT22;11508;50.856;4.380;2023-04-26T07:04:44;10.30;99.90
22682;DHT22;11508;50.856;4.380;2023-04-26T07:07:11;10.50;99.90
22682;DHT22;11508;50.856;4.380;2023-04-26T07:09:36;10.20;99.90
22682;DHT22;11508;50.856;4.380;2023-04-26T07:12:02;10.00;99.90
22682;DHT22;11508;50.856;4.380;2023-04-26T07:14:28;9.80;99.90
22682;DHT22;11508;50.856;4.380;2023-04-26T07:19:19;9.40;1.00
22682;DHT22;11508;50.856;4.380;2023-04-26T07:21:45;9.50;27.30
22682;DHT22;11508;50.856;4.380;2023-04-26T07:24:11;9.50;99.90
22682;DHT22;11508;50.856;4.380;2023-04-26T07:26:39;9.20;99.90
22682;DHT22;11508;50.856;4.380;2023-04-26T07:29:05;9.50;99.90
22682;DHT22;11508;50.856;4.380;2023-04-26T07:31:31;9.90;1.00
22682;DHT22;11508;50.856;4.380;2023-04-26T07:33:57;9.70;99.90
22682;DHT22;11508;50.856;4.380;2023-04-26T07:36:23;9.40;99.90
22682;DHT22;11508;50.856;4.380;2023-04-26T07:38:49;9.40;99.90
22682;DHT22;11508;50.856;4.380;2023-04-26T07:41:15;9.30;99.90
22682;DHT22;11508;50.856;4.380;2023-04-26T07:43:42;10.00;99.90
22682;DHT22;11508;50.856;4.380;2023-04-26T07:46:07;10.70;1.00
22682;DHT22;11508;50.856;4.380;2023-04-26T07:48:33;11.50;99.90
22682;DHT22;11508;50.856;4.380;2023-04-26T07:51:11;12.70;99.90
22682;DHT22;11508;50.856;4.380;2023-04-26T07:53:38;13.70;1.00
22682;DHT22;11508;50.856;4.380;2023-04-26T07:56:05;13.60;99.90
22682;DHT22;11508;50.856;4.380;2023-04-26T07:58:33;13.20;1.00
22682;DHT22;11508;50.856;4.380;2023-04-26T08:00:59;11.40;1.00
22682;DHT22;11508;50.856;4.380;2023-04-26T08:03:25;10.50;99.90
22682;DHT22;11508;50.856;4.380;2023-04-26T08:05:52;10.80;99.90
22682;DHT22;11508;50.856;4.380;2023-04-26T08:08:18;12.00;99.90
22682;DHT22;11508;50.856;4.380;2023-04-26T08:10:44;12.80;99.90
22682;DHT22;11508;50.856;4.380;2023-04-26T08:13:10;11.80;1.00
22682;DHT22;11508;50.856;4.380;2023-04-26T08:15:36;12.70;99.90
22682;DHT22;11508;50.856;4.380;2023-04-26T08:18:02;14.10;1.00
22682;DHT22;11508;50.856;4.380;2023-04-26T08:20:27;13.40;99.90
22682;DHT22;11508;50.856;4.380;2023-04-26T08:22:56;13.80;1.00
22682;DHT22;11508;50.856;4.380;2023-04-26T08:25:23;13.90;17.40
22682;DHT22;11508;50.856;4.380;2023-04-26T08:27:50;13.80;99.90
22682;DHT22;11508;50.856;4.380;2023-04-26T08:30:17;15.80;99.90
22682;DHT22;11508;50.856;4.380;2023-04-26T08:32:45;16.20;99.90
22682;DHT22;11508;50.856;4.380;2023-04-26T08:35:11;16.80;99.90
22682;DHT22;11508;50.856;4.380;2023-04-26T08:37:37;16.90;1.00
22682;DHT22;11508;50.856;4.380;2023-04-26T08:40:07;16.10;1.00
22682;DHT22;11508;50.856;4.380;2023-04-26T08:42:42;15.40;99.90
22682;DHT22;11508;50.856;4.380;2023-04-26T08:45:09;16.70;1.00
22682;DHT22;11508;50.856;4.380;2023-04-26T08:47:49;17.20;99.90
22682;DHT22;11508;50.856;4.380;2023-04-26T08:50:21;16.60;99.90
22682;DHT22;11508;50.856;4.380;2023-04-26T08:52:50;18.30;99.90
22682;DHT22;11508;50.856;4.380;2023-04-26T08:55:18;21.60;99.90
22682;DHT22;11508;50.856;4.380;2023-04-26T08:57:48;21.60;99.90
22682;DHT22;11508;50.856;4.380;2023-04-26T09:00:15;21.40;99.90
22682;DHT22;11508;50.856;4.380;2023-04-26T09:02:51;21.70;99.90
22682;DHT22;11508;50.856;4.380;2023-04-26T09:05:17;19.20;26.40
22682;DHT22;11508;50.856;4.380;2023-04-26T09:07:49;18.30;1.00
22682;DHT22;11508;50.856;4.380;2023-04-26T09:10:19;18.30;1.00
22682;DHT22;11508;50.856;4.380;2023-04-26T09:12:49;17.80;1.00
22682;DHT22;11508;50.856;4.380;2023-04-26T09:15:16;18.50;1.00
22682;DHT22;11508;50.856;4.380;2023-04-26T09:17:41;18.60;1.00
22682;DHT22;11508;50.856;4.380;2023-04-26T09:22:53;20.10;1.00
22682;DHT22;11508;50.856;4.380;2023-04-26T09:25:27;20.40;1.00
22682;DHT22;11508;50.856;4.380;2023-04-26T09:27:53;18.20;1.00
22682;DHT22;11508;50.856;4.380;2023-04-26T09:30:20;14.70;1.00
22682;DHT22;11508;50.856;4.380;2023-04-26T09:35:35;18.80;1.00
22682;DHT22;11508;50.856;4.380;2023-04-26T09:38:08;20.00;1.00
22682;DHT22;11508;50.856;4.380;2023-04-26T09:40:36;19.50;1.00
22682;DHT22;11508;50.856;4.380;2023-04-26T09:43:15;19.00;99.90
22682;DHT22;11508;50.856;4.380;2023-04-26T09:48:24;17.20;99.90
22682;DHT22;11508;50.856;4.380;2023-04-26T09:50:52;17.00;99.90
22682;DHT22;11508;50.856;4.380;2023-04-26T09:53:39;14.90;99.90
22682;DHT22;11508;50.856;4.380;2023-04-26T09:56:23;16.40;99.90
22682;DHT22;11508;50.856;4.380;2023-04-26T10:01:18;16.10;99.90
22682;DHT22;11508;50.856;4.380;2023-04-26T10:03:44;17.30;99.90
22682;DHT22;11508;50.856;4.380;2023-04-26T10:06:14;17.30;99.90
22682;DHT22;11508;50.856;4.380;2023-04-26T10:08:41;16.60;99.90
22682;DHT22;11508;50.856;4.380;2023-04-26T10:13:35;16.40;99.90
22682;DHT22;11508;50.856;4.380;2023-04-26T10:16:01;16.00;99.90
22682;DHT22;11508;50.856;4.380;2023-04-26T10:18:27;16.60;99.90
22682;DHT22;11508;50.856;4.380;2023-04-26T10:20:56;16.50;99.90
22682;DHT22;11508;50.856;4.380;2023-04-26T10:23:24;17.10;99.90
22682;DHT22;11508;50.856;4.380;2023-04-26T10:25:50;18.10;99.90
22682;DHT22;11508;50.856;4.380;2023-04-26T10:31:06;18.00;99.90
22682;DHT22;11508;50.856;4.380;2023-04-26T10:33:33;18.40;99.90
22682;DHT22;11508;50.856;4.380;2023-04-26T10:38:31;18.20;99.90
22682;DHT22;11508;50.856;4.380;2023-04-26T10:41:35;20.10;99.90
22682;DHT22;11508;50.856;4.380;2023-04-26T10:47:19;19.30;99.90
22682;DHT22;11508;50.856;4.380;2023-04-26T10:49:46;19.70;99.90
22682;DHT22;11508;50.856;4.380;2023-04-26T10:52:14;18.90;99.90
22682;DHT22;11508;50.856;4.380;2023-04-26T10:57:10;19.30;99.90
22682;DHT22;11508;50.856;4.380;2023-04-26T10:59:36;20.40;99.90
22682;DHT22;11508;50.856;4.380;2023-04-26T11:02:02;21.20;99.90
22682;DHT22;11508;50.856;4.380;2023-04-26T11:04:53;20.90;99.90
22682;DHT22;11508;50.856;4.380;2023-04-26T11:07:37;20.60;99.90
22682;DHT22;11508;50.856;4.380;2023-04-26T11:10:07;21.00;99.90
22682;DHT22;11508;50.856;4.380;2023-04-26T11:12:34;20.60;99.90
22682;DHT22;11508;50.856;4.380;2023-04-26T11:15:01;20.00;99.90
22682;DHT22;11508;50.856;4.380;2023-04-26T11:17:26;20.00;99.90
22682;DHT22;11508;50.856;4.380;2023-04-26T11:19:52;19.20;99.90
22682;DHT22;11508;50.856;4.380;2023-04-26T11:22:21;18.90;99.90
22682;DHT22;11508;50.856;4.380;2023-04-26T11:24:47;19.00;99.90
22682;DHT22;11508;50.856;4.380;2023-04-26T11:27:14;18.30;99.90
22682;DHT22;11508;50.856;4.380;2023-04-26T11:29:41;19.00;99.90
22682;DHT22;11508;50.856;4.380;2023-04-26T11:32:07;19.30;99.90
22682;DHT22;11508;50.856;4.380;2023-04-26T11:34:34;19.50;99.90
22682;DHT22;11508;50.856;4.380;2023-04-26T11:37:01;19.40;99.90
22682;DHT22;11508;50.856;4.380;2023-04-26T11:39:27;20.00;99.90
22682;DHT22;11508;50.856;4.380;2023-04-26T11:42:11;19.80;99.90
22682;DHT22;11508;50.856;4.380;2023-04-26T11:44:38;20.20;99.90
22682;DHT22;11508;50.856;4.380;2023-04-26T11:47:08;20.20;99.90
22682;DHT22;11508;50.856;4.380;2023-04-26T11:49:36;21.00;99.90
22682;DHT22;11508;50.856;4.380;2023-04-26T11:52:03;20.70;99.90
22682;DHT22;11508;50.856;4.380;2023-04-26T11:54:34;19.20;99.90
22682;DHT22;11508;50.856;4.380;2023-04-26T11:57:00;20.40;99.90
22682;DHT22;11508;50.856;4.380;2023-04-26T11:59:37;18.80;99.90
22682;DHT22;11508;50.856;4.380;2023-04-26T12:02:05;19.80;99.90
22682;DHT22;11508;50.856;4.380;2023-04-26T12:04:34;21.10;99.90
22682;DHT22;11508;50.856;4.380;2023-04-26T12:07:03;21.10;99.90
22682;DHT22;11508;50.856;4.380;2023-04-26T12:09:29;21.00;99.90
22682;DHT22;11508;50.856;4.380;2023-04-26T12:14:34;21.00;99.90
22682;DHT22;11508;50.856;4.380;2023-04-26T12:17:01;20.20;99.90
22682;DHT22;11508;50.856;4.380;2023-04-26T12:19:31;20.50;99.90
22682;DHT22;11508;50.856;4.380;2023-04-26T12:21:57;20.70;99.90
22682;DHT22;11508;50.856;4.380;2023-04-26T12:24:30;20.20;99.90
22682;DHT22;11508;50.856;4.380;2023-04-26T12:26:59;19.60;99.90
22682;DHT22;11508;50.856;4.380;2023-04-26T12:29:25;20.70;99.90
22682;DHT22;11508;50.856;4.380;2023-04-26T12:31:53;20.10;99.90
22682;DHT22;11508;50.856;4.380;2023-04-26T12:34:18;18.30;99.90
22682;DHT22;11508;50.856;4.380;2023-04-26T12:36:44;17.70;99.90
22682;DHT22;11508;50.856;4.380;2023-04-26T12:39:11;17.70;99.90
22682;DHT22;11508;50.856;4.380;2023-04-26T12:41:39;18.00;99.90
22682;DHT22;11508;50.856;4.380;2023-04-26T12:44:09;19.10;99.90
22682;DHT22;11508;50.856;4.380;2023-04-26T12:46:35;17.90;99.90
22682;DHT22;11508;50.856;4.380;2023-04-26T12:49:01;16.70;99.90
22682;DHT22;11508;50.856;4.380;2023-04-26T12:51:28;17.40;99.90
22682;DHT22;11508;50.856;4.380;2023-04-26T12:53:54;18.80;99.90
22682;DHT22;11508;50.856;4.380;2023-04-26T12:56:20;18.80;99.90
22682;DHT22;11508;50.856;4.380;2023-04-26T12:58:49;19.30;99.90
22682;DHT22;11508;50.856;4.380;2023-04-26T13:01:15;19.60;99.90
22682;DHT22;11508;50.856;4.380;2023-04-26T13:03:41;20.00;99.90
22682;DHT22;11508;50.856;4.380;2023-04-26T13:06:07;19.50;99.90
22682;DHT22;11508;50.856;4.380;2023-04-26T13:08:33;19.00;99.90
22682;DHT22;11508;50.856;4.380;2023-04-26T13:10:58;19.00;99.90
22682;DHT22;11508;50.856;4.380;2023-04-26T13:13:24;18.80;99.90
22682;DHT22;11508;50.856;4.380;2023-04-26T13:15:50;18.60;99.90
22682;DHT22;11508;50.856;4.380;2023-04-26T13:18:16;19.20;99.90
22682;DHT22;11508;50.856;4.380;2023-04-26T13:20:43;18.90;99.90
22682;DHT22;11508;50.856;4.380;2023-04-26T13:23:09;19.20;99.90
22682;DHT22;11508;50.856;4.380;2023-04-26T13:25:36;19.10;99.90
22682;DHT22;11508;50.856;4.380;2023-04-26T13:28:02;17.30;99.90
22682;DHT22;11508;50.856;4.380;2023-04-26T13:30:28;18.00;99.90
22682;DHT22;11508;50.856;4.380;2023-04-26T13:32:54;18.30;99.90
22682;DHT22;11508;50.856;4.380;2023-04-26T13:35:20;18.80;99.90
22682;DHT22;11508;50.856;4.380;2023-04-26T13:37:48;17.90;99.90
22682;DHT22;11508;50.856;4.380;2023-04-26T13:40:14;17.30;99.90
22682;DHT22;11508;50.856;4.380;2023-04-26T13:42:41;17.80;99.90
22682;DHT22;11508;50.856;4.380;2023-04-26T13:45:07;17.90;99.90
22682;DHT22;11508;50.856;4.380;2023-04-26T13:47:35;17.40;99.90
22682;DHT22;11508;50.856;4.380;2023-04-26T13:50:01;16.30;99.90
22682;DHT22;11508;50.856;4.380;2023-04-26T13:52:26;16.30;99.90
22682;DHT22;11508;50.856;4.380;2023-04-26T13:55:00;14.80;99.90
22682;DHT22;11508;50.856;4.380;2023-04-26T13:57:27;14.60;99.90
22682;DHT22;11508;50.856;4.380;2023-04-26T13:59:52;14.80;99.90
22682;DHT22;11508;50.856;4.380;2023-04-26T14:02:18;15.00;99.90
22682;DHT22;11508;50.856;4.380;2023-04-26T14:04:44;15.30;99.90
22682;DHT22;11508;50.856;4.380;2023-04-26T14:07:10;15.50;99.90
22682;DHT22;11508;50.856;4.380;2023-04-26T14:09:35;15.70;99.90
22682;DHT22;11508;50.856;4.380;2023-04-26T14:12:01;15.50;99.90
22682;DHT22;11508;50.856;4.380;2023-04-26T14:14:27;15.10;99.90
22682;DHT22;11508;50.856;4.380;2023-04-26T14:16:54;15.00;99.90
22682;DHT22;11508;50.856;4.380;2023-04-26T14:19:20;15.00;99.90
22682;DHT22;11508;50.856;4.380;2023-04-26T14:21:45;15.40;99.90
22682;DHT22;11508;50.856;4.380;2023-04-26T14:24:11;15.60;99.90
22682;DHT22;11508;50.856;4.380;2023-04-26T14:26:37;15.20;99.90
22682;DHT22;11508;50.856;4.380;2023-04-26T14:29:02;14.50;99.90
22682;DHT22;11508;50.856;4.380;2023-04-26T14:31:29;14.30;99.90
22682;DHT22;11508;50.856;4.380;2023-04-26T14:33:57;14.80;99.90
22682;DHT22;11508;50.856;4.380;2023-04-26T14:36:23;15.10;99.90
22682;DHT22;11508;50.856;4.380;2023-04-26T14:38:49;15.20;99.90
22682;DHT22;11508;50.856;4.380;2023-04-26T14:41:16;15.50;99.90
22682;DHT22;11508;50.856;4.380;2023-04-26T14:43:43;15.20;99.90
22682;DHT22;11508;50.856;4.380;2023-04-26T14:46:12;15.20;99.90
22682;DHT22;11508;50.856;4.380;2023-04-26T14:48:38;15.10;99.90
22682;DHT22;11508;50.856;4.380;2023-04-26T14:51:04;14.30;99.90
22682;DHT22;11508;50.856;4.380;2023-04-26T14:53:29;14.10;99.90
22682;DHT22;11508;50.856;4.380;2023-04-26T14:55:59;14.10;99.90
22682;DHT22;11508;50.856;4.380;2023-04-26T15:00:52;14.50;99.90
22682;DHT22;11508;50.856;4.380;2023-04-26T15:03:18;15.10;99.90
22682;DHT22;11508;50.856;4.380;2023-04-26T15:05:45;15.10;99.90
22682;DHT22;11508;50.856;4.380;2023-04-26T15:08:11;15.20;99.90
22682;DHT22;11508;50.856;4.380;2023-04-26T15:10:37;15.10;99.90
22682;DHT22;11508;50.856;4.380;2023-04-26T15:13:02;15.20;99.90
22682;DHT22;11508;50.856;4.380;2023-04-26T15:15:29;14.50;99.90
22682;DHT22;11508;50.856;4.380;2023-04-26T15:17:54;14.70;99.90
22682;DHT22;11508;50.856;4.380;2023-04-26T15:20:20;15.20;99.90
22682;DHT22;11508;50.856;4.380;2023-04-26T15:22:46;15.50;99.90
22682;DHT22;11508;50.856;4.380;2023-04-26T15:25:13;15.50;99.90
22682;DHT22;11508;50.856;4.380;2023-04-26T15:27:39;15.40;99.90
22682;DHT22;11508;50.856;4.380;2023-04-26T15:30:05;15.40;99.90
22682;DHT22;11508;50.856;4.380;2023-04-26T15:32:33;15.30;99.90
22682;DHT22;11508;50.856;4.380;2023-04-26T15:37:25;15.10;99.90
22682;DHT22;11508;50.856;4.380;2023-04-26T15:39:50;15.40;99.90
22682;DHT22;11508;50.856;4.380;2023-04-26T15:42:16;15.10;99.90
22682;DHT22;11508;50.856;4.380;2023-04-26T15:44:42;15.30;99.90
22682;DHT22;11508;50.856;4.380;2023-04-26T15:47:08;15.50;99.90
22682;DHT22;11508;50.856;4.380;2023-04-26T15:49:34;15.50;99.90
22682;DHT22;11508;50.856;4.380;2023-04-26T15:51:59;15.60;99.90
22682;DHT22;11508;50.856;4.380;2023-04-26T15:56:52;15.90;99.90
22682;DHT22;11508;50.856;4.380;2023-04-26T15:59:17;15.80;99.90
22682;DHT22;11508;50.856;4.380;2023-04-26T16:04:11;15.40;99.90
22682;DHT22;11508;50.856;4.380;2023-04-26T16:06:37;15.20;99.90
22682;DHT22;11508;50.856;4.380;2023-04-26T16:09:03;14.90;99.90
22682;DHT22;11508;50.856;4.380;2023-04-26T16:11:33;14.80;99.90
22682;DHT22;11508;50.856;4.380;2023-04-26T16:16:26;15.50;99.90
22682;DHT22;11508;50.856;4.380;2023-04-26T16:18:52;15.10;99.90
22682;DHT22;11508;50.856;4.380;2023-04-26T16:21:17;15.30;99.90
22682;DHT22;11508;50.856;4.380;2023-04-26T16:23:43;15.20;99.90
22682;DHT22;11508;50.856;4.380;2023-04-26T16:26:09;15.00;99.90
22682;DHT22;11508;50.856;4.380;2023-04-26T16:28:35;14.90;99.90
22682;DHT22;11508;50.856;4.380;2023-04-26T16:33:28;14.70;99.90
22682;DHT22;11508;50.856;4.380;2023-04-26T16:35:54;14.90;99.90
22682;DHT22;11508;50.856;4.380;2023-04-26T16:38:23;14.80;99.90
22682;DHT22;11508;50.856;4.380;2023-04-26T16:40:55;14.70;99.90
22682;DHT22;11508;50.856;4.380;2023-04-26T16:43:29;14.60;99.90